sensor_id;sensor_type;location;lat;lon;timestamp;P1;durP1;ratioP1;P2;durP2;ratioP2
32505;SDS011;18955;51.224;8.482;2023-08-30T17:00:44;4.88;;;2.08;;
32505;SDS011;18955;51.224;8.482;2023-08-30T17:03:10;2.08;;;1.40;;
32505;SDS011;18955;51.224;8.482;2023-08-30T17:05:37;2.58;;;1.55;;
32505;SDS011;18955;51.224;8.482;2023-08-30T17:08:05;7.07;;;1.77;;
32505;SDS011;18955;51.224;8.482;2023-08-30T17:10:31;4.68;;;2.05;;
32505;SDS011;18955;51.224;8.482;2023-08-30T17:12:58;3.40;;;1.80;;
32505;SDS011;18955;51.224;8.482;2023-08-30T17:15:24;3.92;;;1.42;;
32505;SDS011;18955;51.224;8.482;2023-08-30T17:17:51;3.28;;;1.63;;
32505;SDS011;18955;51.224;8.482;2023-08-30T17:20:18;4.07;;;2.10;;
32505;SDS011;18955;51.224;8.482;2023-08-30T17:22:45;3.08;;;2.08;;
32505;SDS011;18955;51.224;8.482;2023-08-30T17:25:11;2.53;;;1.48;;
32505;SDS011;18955;51.224;8.482;2023-08-30T17:27:37;4.70;;;1.98;;
32505;SDS011;18955;51.224;8.482;2023-08-30T17:30:05;3.67;;;2.20;;
32505;SDS011;18955;51.224;8.482;2023-08-30T17:32:32;2.67;;;1.60;;
32505;SDS011;18955;51.224;8.482;2023-08-30T17:34:58;1.75;;;1.50;;
32505;SDS011;18955;51.224;8.482;2023-08-30T17:37:24;1.88;;;1.20;;
32505;SDS011;18955;51.224;8.482;2023-08-30T17:39:51;4.72;;;2.05;;
32505;SDS011;18955;51.224;8.482;2023-08-30T17:42:17;1.42;;;1.33;;
32505;SDS011;18955;51.224;8.482;2023-08-30T17:44:43;11.25;;;1.75;;
32505;SDS011;18955;51.224;8.482;2023-08-30T17:47:09;3.42;;;1.70;;
32505;SDS011;18955;51.224;8.482;2023-08-30T17:49:36;9.73;;;1.95;;
32505;SDS011;18955;51.224;8.482;2023-08-30T17:52:02;2.47;;;2.05;;
32505;SDS011;18955;51.224;8.482;2023-08-30T17:56:58;2.40;;;1.88;;
32505;SDS011;18955;51.224;8.482;2023-08-30T18:01:50;4.10;;;2.08;;
32505;SDS011;18955;51.224;8.482;2023-08-30T18:04:18;2.53;;;1.52;;
32505;SDS011;18955;51.224;8.482;2023-08-30T18:06:44;3.72;;;2.00;;
32505;SDS011;18955;51.224;8.482;2023-08-30T18:09:11;1.92;;;1.75;;
32505;SDS011;18955;51.224;8.482;2023-08-30T18:11:38;2.92;;;2.17;;
32505;SDS011;18955;51.224;8.482;2023-08-30T18:14:04;4.05;;;2.25;;
32505;SDS011;18955;51.224;8.482;2023-08-30T18:16:30;3.70;;;1.95;;
32505;SDS011;18955;51.224;8.482;2023-08-30T18:18:57;5.97;;;2.42;;
32505;SDS011;18955;51.224;8.482;2023-08-30T18:21:23;3.35;;;2.08;;
32505;SDS011;18955;51.224;8.482;2023-08-30T18:26:45;2.10;;;1.90;;
32505;SDS011;18955;51.224;8.482;2023-08-30T18:29:13;6.50;;;2.15;;
32505;SDS011;18955;51.224;8.482;2023-08-30T18:31:40;3.35;;;2.05;;
32505;SDS011;18955;51.224;8.482;2023-08-30T18:34:08;7.20;;;2.03;;
32505;SDS011;18955;51.224;8.482;2023-08-30T18:36:34;5.38;;;2.05;;
32505;SDS011;18955;51.224;8.482;2023-08-30T18:39:01;2.75;;;2.20;;
32505;SDS011;18955;51.224;8.482;2023-08-30T18:41:29;2.92;;;2.33;;
32505;SDS011;18955;51.224;8.482;2023-08-30T18:43:55;3.08;;;2.20;;
32505;SDS011;18955;51.224;8.482;2023-08-30T18:46:21;3.28;;;2.33;;
32505;SDS011;18955;51.224;8.482;2023-08-30T18:48:48;2.42;;;1.90;;
32505;SDS011;18955;51.224;8.482;2023-08-30T18:51:15;3.72;;;2.10;;
32505;SDS011;18955;51.224;8.482;2023-08-30T18:53:43;3.22;;;2.20;;
32505;SDS011;18955;51.224;8.482;2023-08-30T18:56:10;3.38;;;1.42;;
32505;SDS011;18955;51.224;8.482;2023-08-30T18:58:36;2.47;;;2.08;;
32505;SDS011;18955;51.224;8.482;2023-08-30T19:01:02;7.18;;;1.60;;
32505;SDS011;18955;51.224;8.482;2023-08-30T19:03:29;4.40;;;2.00;;
32505;SDS011;18955;51.224;8.482;2023-08-30T19:05:56;4.45;;;2.17;;
32505;SDS011;18955;51.224;8.482;2023-08-30T19:08:22;7.55;;;2.53;;
32505;SDS011;18955;51.224;8.482;2023-08-30T19:10:48;3.85;;;2.58;;
32505;SDS011;18955;51.224;8.482;2023-08-30T19:13:15;5.43;;;2.42;;
32505;SDS011;18955;51.224;8.482;2023-08-30T19:15:41;3.22;;;2.67;;
32505;SDS011;18955;51.224;8.482;2023-08-30T19:18:08;3.58;;;2.60;;
32505;SDS011;18955;51.224;8.482;2023-08-30T19:20:34;6.05;;;3.40;;
32505;SDS011;18955;51.224;8.482;2023-08-30T19:23:00;4.53;;;2.03;;
32505;SDS011;18955;51.224;8.482;2023-08-30T19:25:29;4.53;;;3.17;;
32505;SDS011;18955;51.224;8.482;2023-08-30T19:27:58;3.90;;;2.70;;
32505;SDS011;18955;51.224;8.482;2023-08-30T19:30:25;3.55;;;2.70;;
32505;SDS011;18955;51.224;8.482;2023-08-30T19:32:51;3.33;;;2.65;;
32505;SDS011;18955;51.224;8.482;2023-08-30T19:35:18;3.70;;;3.00;;
32505;SDS011;18955;51.224;8.482;2023-08-30T19:37:45;4.38;;;3.08;;
32505;SDS011;18955;51.224;8.482;2023-08-30T19:40:12;6.05;;;3.03;;
32505;SDS011;18955;51.224;8.482;2023-08-30T19:42:38;6.05;;;3.00;;
32505;SDS011;18955;51.224;8.482;2023-08-30T19:45:05;6.93;;;3.50;;
32505;SDS011;18955;51.224;8.482;2023-08-30T19:47:33;5.78;;;3.72;;
32505;SDS011;18955;51.224;8.482;2023-08-30T19:49:59;6.07;;;4.18;;
32505;SDS011;18955;51.224;8.482;2023-08-30T19:52:26;9.90;;;4.15;;
32505;SDS011;18955;51.224;8.482;2023-08-30T19:54:52;6.47;;;4.32;;
32505;SDS011;18955;51.224;8.482;2023-08-30T19:57:20;5.93;;;3.80;;
32505;SDS011;18955;51.224;8.482;2023-08-30T19:59:47;8.40;;;3.53;;
32505;SDS011;18955;51.224;8.482;2023-08-30T20:02:13;7.35;;;5.13;;
32505;SDS011;18955;51.224;8.482;2023-08-30T20:07:06;7.93;;;5.18;;
32505;SDS011;18955;51.224;8.482;2023-08-30T20:09:33;10.88;;;5.35;;
32505;SDS011;18955;51.224;8.482;2023-08-30T20:12:01;10.65;;;4.88;;
32505;SDS011;18955;51.224;8.482;2023-08-30T20:14:28;10.32;;;5.65;;
32505;SDS011;18955;51.224;8.482;2023-08-30T20:16:54;8.93;;;3.72;;
32505;SDS011;18955;51.224;8.482;2023-08-30T20:19:20;8.60;;;5.18;;
32505;SDS011;18955;51.224;8.482;2023-08-30T20:21:47;7.95;;;5.68;;
32505;SDS011;18955;51.224;8.482;2023-08-30T20:24:13;9.02;;;5.97;;
32505;SDS011;18955;51.224;8.482;2023-08-30T20:26:40;11.05;;;6.80;;
32505;SDS011;18955;51.224;8.482;2023-08-30T20:29:09;9.75;;;6.07;;
32505;SDS011;18955;51.224;8.482;2023-08-30T20:31:35;8.55;;;6.22;;
32505;SDS011;18955;51.224;8.482;2023-08-30T20:34:02;11.13;;;6.78;;
32505;SDS011;18955;51.224;8.482;2023-08-30T20:36:29;10.75;;;7.20;;
32505;SDS011;18955;51.224;8.482;2023-08-30T20:38:55;11.73;;;8.32;;
32505;SDS011;18955;51.224;8.482;2023-08-30T20:41:21;9.75;;;8.05;;
32505;SDS011;18955;51.224;8.482;2023-08-30T20:43:50;11.02;;;6.97;;
32505;SDS011;18955;51.224;8.482;2023-08-30T20:46:17;9.98;;;6.78;;
32505;SDS011;18955;51.224;8.482;2023-08-30T20:48:43;9.43;;;7.13;;
32505;SDS011;18955;51.224;8.482;2023-08-30T20:51:09;7.45;;;4.78;;
32505;SDS011;18955;51.224;8.482;2023-08-30T20:53:36;10.55;;;6.47;;
32505;SDS011;18955;51.224;8.482;2023-08-30T20:56:07;9.82;;;6.18;;
32505;SDS011;18955;51.224;8.482;2023-08-30T20:58:37;11.98;;;6.03;;
32505;SDS011;18955;51.224;8.482;2023-08-30T21:01:09;8.25;;;5.90;;
32505;SDS011;18955;51.224;8.482;2023-08-30T21:03:37;10.98;;;6.40;;
32505;SDS011;18955;51.224;8.482;2023-08-30T21:06:03;11.00;;;6.88;;
32505;SDS011;18955;51.224;8.482;2023-08-30T21:10:56;9.68;;;6.22;;
32505;SDS011;18955;51.224;8.482;2023-08-30T21:13:22;5.28;;;4.63;;
32505;SDS011;18955;51.224;8.482;2023-08-30T21:15:48;10.93;;;7.78;;
32505;SDS011;18955;51.224;8.482;2023-08-30T21:18:14;8.40;;;6.55;;
32505;SDS011;18955;51.224;8.482;2023-08-30T21:20:40;8.55;;;6.75;;
32505;SDS011;18955;51.224;8.482;2023-08-30T21:23:07;11.77;;;6.28;;
32505;SDS011;18955;51.224;8.482;2023-08-30T21:28:01;9.70;;;6.95;;
32505;SDS011;18955;51.224;8.482;2023-08-30T21:30:29;11.95;;;6.80;;
32505;SDS011;18955;51.224;8.482;2023-08-30T21:32:56;11.57;;;6.22;;
32505;SDS011;18955;51.224;8.482;2023-08-30T21:35:22;9.93;;;6.50;;
32505;SDS011;18955;51.224;8.482;2023-08-30T21:37:49;7.80;;;6.40;;
32505;SDS011;18955;51.224;8.482;2023-08-30T21:40:15;8.32;;;5.90;;
32505;SDS011;18955;51.224;8.482;2023-08-30T21:42:41;4.55;;;3.75;;
32505;SDS011;18955;51.224;8.482;2023-08-30T21:45:07;8.60;;;6.13;;
32505;SDS011;18955;51.224;8.482;2023-08-30T21:47:34;11.18;;;5.93;;
32505;SDS011;18955;51.224;8.482;2023-08-30T21:50:03;17.83;;;6.10;;
32505;SDS011;18955;51.224;8.482;2023-08-30T21:52:29;8.57;;;5.32;;
32505;SDS011;18955;51.224;8.482;2023-08-30T21:54:56;9.65;;;5.60;;
32505;SDS011;18955;51.224;8.482;2023-08-30T21:57:22;10.77;;;6.55;;
32505;SDS011;18955;51.224;8.482;2023-08-30T21:59:48;6.70;;;5.32;;
32505;SDS011;18955;51.224;8.482;2023-08-30T22:02:14;10.85;;;4.78;;
32505;SDS011;18955;51.224;8.482;2023-08-30T22:04:40;11.30;;;5.05;;
32505;SDS011;18955;51.224;8.482;2023-08-30T22:07:07;14.35;;;4.05;;
32505;SDS011;18955;51.224;8.482;2023-08-30T22:11:59;10.40;;;5.32;;
32505;SDS011;18955;51.224;8.482;2023-08-30T22:14:26;9.50;;;5.55;;
32505;SDS011;18955;51.224;8.482;2023-08-30T22:16:53;6.72;;;5.20;;
32505;SDS011;18955;51.224;8.482;2023-08-30T22:21:46;10.50;;;5.72;;
32505;SDS011;18955;51.224;8.482;2023-08-30T22:26:38;9.73;;;6.13;;
32505;SDS011;18955;51.224;8.482;2023-08-30T22:29:04;6.80;;;4.45;;
32505;SDS011;18955;51.224;8.482;2023-08-30T22:31:31;8.13;;;4.25;;
32505;SDS011;18955;51.224;8.482;2023-08-30T22:33:57;9.55;;;5.72;;
32505;SDS011;18955;51.224;8.482;2023-08-30T22:36:23;9.60;;;5.63;;
32505;SDS011;18955;51.224;8.482;2023-08-30T22:38:49;11.52;;;5.88;;
32505;SDS011;18955;51.224;8.482;2023-08-30T22:41:16;10.30;;;6.05;;
32505;SDS011;18955;51.224;8.482;2023-08-30T22:43:42;7.65;;;6.55;;
32505;SDS011;18955;51.224;8.482;2023-08-30T22:46:09;8.27;;;5.45;;
32505;SDS011;18955;51.224;8.482;2023-08-30T22:48:35;10.82;;;5.70;;
32505;SDS011;18955;51.224;8.482;2023-08-30T22:51:02;11.32;;;5.85;;
32505;SDS011;18955;51.224;8.482;2023-08-30T22:53:31;9.13;;;5.50;;
32505;SDS011;18955;51.224;8.482;2023-08-30T22:56:01;7.45;;;4.13;;
32505;SDS011;18955;51.224;8.482;2023-08-30T22:58:31;10.00;;;6.45;;
32505;SDS011;18955;51.224;8.482;2023-08-30T23:03:28;11.88;;;6.70;;
32505;SDS011;18955;51.224;8.482;2023-08-30T23:05:55;9.48;;;6.80;;
32505;SDS011;18955;51.224;8.482;2023-08-30T23:08:22;10.57;;;6.88;;
32505;SDS011;18955;51.224;8.482;2023-08-30T23:10:48;6.68;;;5.32;;
32505;SDS011;18955;51.224;8.482;2023-08-30T23:13:14;12.15;;;8.45;;
32505;SDS011;18955;51.224;8.482;2023-08-30T23:15:40;12.02;;;7.07;;
32505;SDS011;18955;51.224;8.482;2023-08-30T23:18:06;17.77;;;8.73;;
32505;SDS011;18955;51.224;8.482;2023-08-30T23:20:33;8.27;;;7.43;;
32505;SDS011;18955;51.224;8.482;2023-08-30T23:23:02;13.32;;;8.77;;
32505;SDS011;18955;51.224;8.482;2023-08-30T23:27:55;11.32;;;7.30;;
32505;SDS011;18955;51.224;8.482;2023-08-30T23:30:25;14.38;;;10.02;;
32505;SDS011;18955;51.224;8.482;2023-08-30T23:35:19;12.27;;;9.20;;
32505;SDS011;18955;51.224;8.482;2023-08-30T23:37:45;13.90;;;9.48;;
32505;SDS011;18955;51.224;8.482;2023-08-30T23:40:12;11.80;;;9.25;;
32505;SDS011;18955;51.224;8.482;2023-08-30T23:42:40;11.10;;;9.25;;
32505;SDS011;18955;51.224;8.482;2023-08-30T23:45:07;15.68;;;10.77;;
32505;SDS011;18955;51.224;8.482;2023-08-30T23:47:34;13.65;;;9.82;;
32505;SDS011;18955;51.224;8.482;2023-08-30T23:50:02;11.13;;;9.07;;
32505;SDS011;18955;51.224;8.482;2023-08-30T23:52:29;17.70;;;10.43;;
32505;SDS011;18955;51.224;8.482;2023-08-30T23:54:55;16.58;;;10.88;;
32505;SDS011;18955;51.224;8.482;2023-08-30T23:57:22;13.55;;;11.93;;
